createdAt,value
2022-12-25T00:01:42.116Z,17.27
2022-12-25T00:05:09.637Z,16.33
2022-12-25T00:08:33.802Z,17.63
2022-12-25T00:12:00.896Z,18.67
2022-12-25T00:15:24.900Z,17.38
2022-12-25T00:18:49.968Z,16.00
2022-12-25T00:22:15.412Z,15.30
2022-12-25T00:25:42.410Z,15.88
2022-12-25T00:29:06.189Z,17.45
2022-12-25T00:32:30.646Z,15.90
2022-12-25T00:36:01.499Z,16.73
2022-12-25T00:39:27.432Z,17.98
2022-12-25T00:42:51.364Z,19.23
2022-12-25T00:46:15.804Z,17.27
2022-12-25T00:49:39.854Z,16.60
2022-12-25T00:53:03.786Z,14.65
2022-12-25T00:56:29.304Z,19.27
2022-12-25T00:59:53.867Z,17.75
2022-12-25T01:03:19.407Z,17.58
2022-12-25T01:06:43.771Z,15.73
2022-12-25T01:10:23.753Z,17.23
2022-12-25T01:13:49.305Z,17.60
2022-12-25T01:17:13.120Z,15.27
2022-12-25T01:20:37.328Z,15.52
2022-12-25T01:24:00.801Z,14.40
2022-12-25T01:27:25.242Z,15.52
2022-12-25T01:30:51.421Z,16.55
2022-12-25T01:34:15.740Z,17.77
2022-12-25T01:37:39.940Z,16.73
2022-12-25T01:41:04.120Z,17.80
2022-12-25T01:45:19.521Z,15.55
2022-12-25T01:55:37.560Z,14.15
2022-12-25T01:59:02.813Z,16.60
2022-12-25T02:02:28.578Z,13.55
2022-12-25T02:05:54.960Z,16.27
2022-12-25T02:09:20.309Z,15.05
2022-12-25T02:12:48.744Z,12.73
2022-12-25T02:16:21.312Z,13.43
2022-12-25T02:20:12.098Z,12.85
2022-12-25T02:24:08.925Z,14.82
2022-12-25T02:28:10.278Z,13.30
2022-12-25T02:31:41.331Z,12.90
2022-12-25T02:35:11.943Z,14.88
2022-12-25T02:39:02.114Z,14.93
2022-12-25T02:42:48.496Z,13.05
2022-12-25T02:46:35.241Z,13.95
2022-12-25T02:50:19.287Z,14.48
2022-12-25T02:54:10.280Z,14.85
2022-12-25T02:57:55.794Z,14.70
2022-12-25T03:01:56.962Z,15.13
2022-12-25T03:05:44.272Z,15.43
2022-12-25T03:09:29.360Z,13.93
2022-12-25T03:12:58.521Z,14.45
2022-12-25T03:16:41.603Z,13.95
2022-12-25T03:20:25.934Z,14.57
2022-12-25T03:24:15.651Z,14.88
2022-12-25T03:27:43.741Z,15.25
2022-12-25T03:31:17.895Z,15.32
2022-12-25T03:35:08.080Z,14.32
2022-12-25T03:39:05.353Z,14.30
2022-12-25T03:42:58.246Z,13.90
2022-12-25T03:46:50.945Z,12.73
2022-12-25T03:50:38.522Z,15.50
2022-12-25T03:54:23.394Z,14.40
2022-12-25T04:01:46.022Z,14.75
2022-12-25T04:05:26.974Z,16.17
2022-12-25T04:09:10.242Z,16.13
2022-12-25T04:12:51.472Z,14.40
2022-12-25T04:16:33.250Z,17.63
2022-12-25T04:20:14.398Z,15.68
2022-12-25T04:23:55.568Z,13.65
2022-12-25T04:27:37.681Z,15.93
2022-12-25T04:31:19.423Z,15.60
2022-12-25T04:35:02.181Z,14.43
2022-12-25T04:38:26.366Z,17.73
2022-12-25T04:41:50.209Z,17.42
2022-12-25T04:45:15.883Z,15.43
2022-12-25T04:48:39.981Z,18.60
2022-12-25T04:52:04.230Z,18.33
2022-12-25T04:55:28.284Z,16.65
2022-12-25T04:58:52.681Z,19.13
2022-12-25T05:02:20.680Z,18.05
2022-12-25T05:09:08.909Z,18.10
2022-12-25T05:12:32.986Z,18.88
2022-12-25T05:15:56.900Z,17.55
2022-12-25T05:19:22.515Z,17.83
2022-12-25T05:22:46.306Z,18.20
2022-12-25T05:26:11.587Z,16.80
2022-12-25T05:29:35.449Z,18.90
2022-12-25T05:32:59.353Z,16.65
2022-12-25T05:36:24.806Z,17.50
2022-12-25T05:39:49.078Z,14.60
2022-12-25T05:43:12.942Z,14.63
2022-12-25T05:46:37.090Z,15.80
2022-12-25T05:50:00.922Z,14.52
2022-12-25T05:53:26.504Z,14.18
2022-12-25T05:56:50.485Z,12.40
2022-12-25T06:00:17.993Z,14.15
2022-12-25T06:03:41.869Z,15.95
2022-12-25T06:07:06.153Z,14.70
2022-12-25T06:10:31.319Z,14.18
2022-12-25T06:13:55.956Z,14.10
2022-12-25T06:17:19.938Z,15.32
2022-12-25T06:20:43.893Z,13.98
2022-12-25T06:24:08.055Z,12.88
2022-12-25T06:27:33.502Z,13.00
2022-12-25T06:30:57.318Z,13.52
2022-12-25T06:34:21.816Z,14.70
2022-12-25T06:37:45.743Z,13.38
2022-12-25T06:41:11.610Z,13.30
2022-12-25T06:44:36.868Z,13.93
2022-12-25T06:48:01.154Z,13.88
2022-12-25T06:51:26.646Z,13.35
2022-12-25T06:54:50.757Z,14.27
2022-12-25T06:58:14.333Z,14.80
2022-12-25T07:01:46.669Z,14.95
2022-12-25T07:08:34.395Z,12.63
2022-12-25T07:12:05.255Z,13.40
2022-12-25T07:15:29.449Z,14.07
2022-12-25T07:18:55.093Z,12.85
2022-12-25T07:22:19.155Z,14.88
2022-12-25T07:25:42.997Z,14.32
2022-12-25T07:29:07.193Z,15.45
2022-12-25T07:32:31.962Z,13.88
2022-12-25T07:35:58.429Z,14.95
2022-12-25T07:39:22.349Z,14.43
2022-12-25T07:42:46.837Z,15.52
2022-12-25T07:46:11.618Z,15.43
2022-12-25T07:49:37.261Z,14.55
2022-12-25T07:53:02.481Z,13.25
2022-12-25T07:56:26.372Z,13.38
2022-12-25T07:59:50.145Z,13.52
2022-12-25T08:03:16.214Z,13.95
2022-12-25T08:06:40.411Z,14.30
2022-12-25T08:10:07.017Z,14.13
2022-12-25T08:13:32.621Z,14.63
2022-12-25T08:16:56.948Z,14.25
2022-12-25T08:20:21.016Z,15.27
2022-12-25T08:23:47.099Z,14.75
2022-12-25T08:27:12.287Z,14.43
2022-12-25T08:30:36.347Z,13.75
2022-12-25T08:34:00.909Z,16.05
2022-12-25T08:37:24.849Z,15.05
2022-12-25T08:40:48.558Z,14.32
2022-12-25T08:44:14.350Z,14.35
2022-12-25T08:47:38.057Z,14.82
2022-12-25T08:51:03.198Z,16.48
2022-12-25T08:54:31.252Z,14.70
2022-12-25T08:57:57.962Z,16.42
2022-12-25T09:01:23.285Z,17.73
2022-12-25T09:04:47.673Z,15.38
2022-12-25T09:08:11.748Z,17.27
2022-12-25T09:11:35.612Z,15.45
2022-12-25T09:14:59.400Z,15.52
2022-12-25T09:18:25.454Z,16.35
2022-12-25T09:21:49.250Z,15.48
2022-12-25T09:25:13.582Z,17.02
2022-12-25T09:28:37.506Z,17.15
2022-12-25T09:32:01.483Z,15.75
2022-12-25T09:35:29.331Z,16.27
2022-12-25T09:38:54.061Z,17.08
2022-12-25T09:42:22.108Z,18.35
2022-12-25T09:45:46.926Z,15.32
2022-12-25T09:49:19.959Z,17.52
2022-12-25T09:52:50.545Z,18.10
2022-12-25T09:56:26.335Z,16.80
2022-12-25T09:59:50.433Z,17.38
2022-12-25T10:03:43.915Z,18.98
2022-12-25T10:07:15.106Z,19.50
2022-12-25T10:10:51.038Z,18.33
2022-12-25T10:14:27.321Z,17.50
2022-12-25T10:18:09.706Z,17.65
2022-12-25T10:21:34.128Z,17.10
2022-12-25T10:25:00.972Z,18.48
2022-12-25T10:28:32.027Z,15.90
2022-12-25T10:31:57.222Z,17.92
2022-12-25T10:35:24.614Z,17.65
2022-12-25T10:38:49.086Z,18.23
2022-12-25T10:42:29.863Z,18.52
2022-12-25T10:45:55.324Z,18.45
2022-12-25T10:49:22.532Z,17.08
2022-12-25T10:52:57.248Z,18.58
2022-12-25T10:56:21.412Z,19.80
2022-12-25T10:59:46.647Z,20.20
2022-12-25T11:03:24.853Z,20.30
2022-12-25T11:06:59.063Z,20.67
2022-12-25T11:10:26.545Z,16.90
2022-12-25T11:13:54.264Z,20.02
2022-12-25T11:17:23.146Z,18.77
2022-12-25T11:20:52.034Z,20.33
2022-12-25T11:24:21.505Z,19.70
2022-12-25T11:27:50.287Z,18.95
2022-12-25T11:31:19.508Z,20.90
2022-12-25T11:34:46.753Z,20.95
2022-12-25T11:38:12.233Z,20.25
2022-12-25T11:41:41.774Z,18.90
2022-12-25T11:45:10.442Z,19.40
2022-12-25T11:48:42.364Z,19.60
2022-12-25T11:52:13.397Z,18.90
2022-12-25T11:55:42.652Z,18.98
2022-12-25T11:59:17.914Z,16.75
2022-12-25T12:02:47.510Z,18.40
2022-12-25T12:06:19.647Z,20.38
2022-12-25T12:09:52.474Z,18.63
2022-12-25T12:13:34.502Z,18.67
2022-12-25T12:17:02.048Z,17.55
2022-12-25T12:20:32.360Z,20.10
2022-12-25T12:24:02.040Z,19.08
2022-12-25T12:27:31.331Z,18.13
2022-12-25T12:31:02.415Z,18.08
2022-12-25T12:34:29.866Z,16.98
2022-12-25T12:37:57.421Z,17.80
2022-12-25T12:41:23.352Z,17.67
2022-12-25T12:44:47.852Z,18.30
2022-12-25T12:48:30.104Z,18.30
2022-12-25T12:52:05.864Z,18.63
2022-12-25T12:55:31.148Z,17.17
2022-12-25T12:58:54.992Z,18.08
2022-12-25T13:03:04.367Z,18.85
2022-12-25T13:06:36.149Z,20.02
2022-12-25T13:10:10.665Z,20.50
2022-12-25T13:13:38.816Z,19.80
2022-12-25T13:17:03.198Z,20.33
2022-12-25T13:20:40.020Z,22.13
2022-12-25T13:24:10.372Z,22.92
2022-12-25T13:27:35.377Z,20.73
2022-12-25T13:31:15.896Z,21.05
2022-12-25T13:34:41.862Z,23.42
2022-12-25T13:38:13.852Z,23.25
2022-12-25T13:42:01.605Z,23.10
2022-12-25T13:45:28.976Z,22.63
2022-12-25T13:49:01.295Z,23.00
2022-12-25T13:52:30.141Z,23.55
2022-12-25T13:55:56.129Z,23.10
2022-12-25T13:59:23.535Z,24.10
2022-12-25T14:02:51.565Z,23.13
2022-12-25T14:06:21.476Z,23.48
2022-12-25T14:09:45.618Z,24.77
2022-12-25T14:13:14.411Z,24.50
2022-12-25T14:16:43.736Z,32.08
2022-12-25T14:20:09.460Z,24.40
2022-12-25T14:23:42.572Z,21.75
2022-12-25T14:27:09.192Z,25.00
2022-12-25T14:30:40.211Z,25.35
2022-12-25T14:34:12.611Z,24.40
2022-12-25T14:37:38.529Z,23.45
2022-12-25T14:41:03.725Z,21.38
2022-12-25T14:44:34.022Z,24.15
2022-12-25T14:48:00.322Z,22.73
2022-12-25T14:51:25.597Z,27.38
2022-12-25T14:54:52.513Z,24.55
2022-12-25T14:58:22.238Z,25.67
2022-12-25T15:01:52.251Z,30.20
2022-12-25T15:05:28.202Z,24.23
2022-12-25T15:09:04.012Z,29.08
2022-12-25T15:12:27.827Z,27.40
2022-12-25T15:16:00.178Z,29.55
2022-12-25T15:19:30.412Z,26.25
2022-12-25T15:23:18.447Z,26.05
2022-12-25T15:26:43.088Z,26.80
2022-12-25T15:30:10.407Z,26.15
2022-12-25T15:33:37.008Z,28.02
2022-12-25T15:37:04.595Z,28.02
2022-12-25T15:40:28.465Z,28.38
2022-12-25T15:43:54.562Z,31.20
2022-12-25T15:47:20.315Z,30.85
2022-12-25T15:54:10.409Z,29.77
2022-12-25T15:57:35.360Z,24.55
2022-12-25T16:01:00.680Z,28.90
2022-12-25T16:04:26.055Z,33.20
2022-12-25T16:07:50.619Z,31.85
2022-12-25T16:11:14.916Z,29.23
2022-12-25T16:14:39.135Z,32.05
2022-12-25T16:18:04.769Z,32.13
2022-12-25T16:21:30.970Z,29.20
2022-12-25T16:24:55.398Z,32.28
2022-12-25T16:28:19.173Z,30.23
2022-12-25T16:31:43.493Z,35.03
2022-12-25T16:35:10.025Z,32.60
2022-12-25T16:38:34.511Z,29.17
2022-12-25T16:41:58.158Z,24.42
2022-12-25T16:45:22.071Z,31.25
2022-12-25T16:48:45.984Z,28.27
2022-12-25T16:52:11.692Z,32.47
2022-12-25T16:55:37.134Z,31.10
2022-12-25T16:59:01.259Z,29.67
2022-12-25T17:02:25.359Z,31.05
2022-12-25T17:05:49.471Z,32.38
2022-12-25T17:09:14.432Z,27.60
2022-12-25T17:12:38.633Z,26.58
2022-12-25T17:16:02.562Z,27.45
2022-12-25T17:19:27.341Z,30.33
2022-12-25T17:22:51.521Z,28.77
2022-12-25T17:26:17.362Z,29.08
2022-12-25T17:29:41.204Z,29.85
2022-12-25T17:33:05.369Z,31.85
2022-12-25T17:36:31.980Z,31.98
2022-12-25T17:39:56.199Z,33.08
2022-12-25T17:43:21.302Z,30.92
2022-12-25T17:46:48.024Z,35.38
2022-12-25T17:53:41.397Z,30.02
2022-12-25T17:57:06.509Z,28.25
2022-12-25T18:00:32.028Z,28.42
2022-12-25T18:03:56.954Z,26.00
2022-12-25T18:07:21.096Z,26.83
2022-12-25T18:10:45.993Z,22.75
2022-12-25T18:14:13.182Z,27.98
2022-12-25T18:17:39.675Z,29.52
2022-12-25T18:21:04.095Z,22.73
2022-12-25T18:24:27.804Z,23.02
2022-12-25T18:27:52.543Z,28.63
2022-12-25T18:31:18.354Z,25.70
2022-12-25T18:38:09.507Z,22.45
2022-12-25T18:45:17.877Z,23.55
2022-12-25T18:48:44.243Z,28.95
2022-12-25T18:52:49.554Z,27.25
2022-12-25T18:55:53.358Z,26.63
2022-12-25T18:59:17.154Z,26.58
2022-12-25T19:02:41.282Z,26.48
2022-12-25T19:06:05.095Z,27.73
2022-12-25T19:09:31.579Z,29.83
2022-12-25T19:12:55.341Z,25.40
2022-12-25T19:16:20.038Z,29.38
2022-12-25T19:19:44.343Z,34.42
2022-12-25T19:23:08.481Z,33.28
2022-12-25T19:26:33.665Z,37.47
2022-12-25T19:29:58.444Z,31.83
2022-12-25T19:33:23.041Z,31.55
2022-12-25T19:36:48.551Z,28.08
2022-12-25T19:40:15.832Z,35.67
2022-12-25T19:43:43.301Z,35.47
2022-12-25T19:47:07.262Z,32.22
2022-12-25T19:50:33.817Z,33.75
2022-12-25T19:53:58.083Z,34.10
2022-12-25T19:57:22.550Z,36.42
2022-12-25T20:00:58.791Z,30.95
2022-12-25T20:04:23.007Z,30.25
2022-12-25T20:07:48.191Z,28.50
2022-12-25T20:11:12.363Z,29.75
2022-12-25T20:14:36.189Z,31.63
2022-12-25T20:18:03.201Z,29.88
2022-12-25T20:21:30.184Z,28.70
2022-12-25T20:24:54.376Z,31.55
2022-12-25T20:28:18.210Z,26.48
2022-12-25T20:31:42.290Z,26.88
2022-12-25T20:35:08.637Z,28.50
2022-12-25T20:38:33.224Z,27.65
2022-12-25T20:41:59.947Z,30.75
2022-12-25T20:45:24.199Z,31.98
2022-12-25T20:48:47.713Z,29.88
2022-12-25T20:52:13.132Z,24.95
2022-12-25T20:55:36.893Z,29.23
2022-12-25T20:59:02.069Z,32.80
2022-12-25T21:02:35.949Z,27.38
2022-12-25T21:06:01.331Z,23.58
2022-12-25T21:09:26.809Z,26.20
2022-12-25T21:12:50.915Z,26.58
2022-12-25T21:16:16.427Z,22.77
2022-12-25T21:19:40.525Z,23.85
2022-12-25T21:23:04.716Z,23.00
2022-12-25T21:26:33.684Z,21.83
2022-12-25T21:29:57.333Z,21.75
2022-12-25T21:33:38.668Z,16.02
2022-12-25T21:37:02.020Z,21.63
2022-12-25T21:40:26.168Z,25.15
2022-12-25T21:43:51.568Z,22.83
2022-12-25T21:47:15.819Z,22.33
2022-12-25T21:50:56.633Z,24.77
2022-12-25T21:54:21.949Z,22.85
2022-12-25T21:57:45.699Z,16.45
2022-12-25T22:01:12.244Z,22.90
2022-12-25T22:07:59.345Z,22.83
2022-12-25T22:11:40.901Z,22.73
2022-12-25T22:15:06.976Z,27.70
2022-12-25T22:18:49.584Z,25.63
2022-12-25T22:22:13.738Z,27.13
2022-12-25T22:25:38.095Z,29.13
2022-12-25T22:29:02.531Z,28.08
2022-12-25T22:32:26.516Z,23.45
2022-12-25T22:35:52.057Z,20.83
2022-12-25T22:39:16.177Z,20.75
2022-12-25T22:42:40.365Z,25.95
2022-12-25T22:46:04.406Z,25.17
2022-12-25T22:49:28.850Z,18.15
2022-12-25T22:52:54.013Z,26.45
2022-12-25T22:56:18.205Z,24.05
2022-12-25T22:59:43.785Z,24.08
2022-12-25T23:03:07.899Z,23.05
2022-12-25T23:06:31.673Z,26.10
2022-12-25T23:09:57.290Z,24.85
2022-12-25T23:13:38.284Z,22.35
2022-12-25T23:17:02.367Z,22.48
2022-12-25T23:20:43.733Z,20.70
2022-12-25T23:24:27.472Z,19.30
2022-12-25T23:27:52.725Z,18.33
2022-12-25T23:31:15.814Z,20.25
2022-12-25T23:34:42.243Z,20.67
2022-12-25T23:38:05.922Z,17.05
2022-12-25T23:41:29.670Z,20.00
2022-12-25T23:44:55.239Z,21.08
2022-12-25T23:48:19.047Z,20.23
2022-12-25T23:51:45.819Z,11.63
